KCGF/CGF METAR and TAF weather

Enter ICAO airport designator
Station Type Date Time Source
KCGF METAR 2018/01/21 11:45 UTC NOAA

KCGF 211145Z 17006KT 5SM -RA BR OVC015 04/00 A3010


Station Type Date Time Source
KCGF Decoded METAR 2018/01/21 11:45 UTC NOAA

Cleveland / Cuyahoga, OH, United States (KCGF) 41-34N 081-29W
Jan 21, 2018 - 06:45 AM EST / 2018.01.21 1145 UTC
Wind: from the S (170 degrees) at 7 MPH (6 KT):0
Visibility: 5 mile(s):0
Sky conditions: overcast
Weather: light rain; mist
Temperature: 39 F (4 C)
Dew Point: 32 F (0 C)
Relative Humidity: 75%
Pressure (altimeter): 30.1 in. Hg (1019 hPa)
ob: KCGF 211145Z 17006KT 5SM -RA BR OVC015 04/00 A3010
cycle: 12

Station Type Date Time Source
KCGF TAF 2016/07/19 12:36 UTC NOAA

TAF KCGF 191136Z 1912/2012 VRB05KT P6SM SCT080
FM191400 33008KT P6SM SCT040
FM191900 35008KT P6SM SCT060
FM200000 04003KT P6SM SCT080
FM200700 14003KT P6SM SKC


Example: see airport list